PWSweather.com
Personal Weather Stations
Station Observations
KFLPOINC2
PoincianaKissimmee, Poinciana, FL 34758

PoincianaKissimmeePoinciana, FL 34758

Lat: 28.161417, Lon: -81.477557

Elevation: 62

Station Type: Ambient Weather WS 2080

Latest ConditionsUpdated 5:30:06 PM EST Friday, Nov 28, 2014
Currently Today's Max Today's Min Today's Average
Temperature 63.1°F17.3°C 70.0°F21.1°C 30.2°F-1.0°C 58.1°F14.5°C
Dew Point 39.7°F4.3°C 43.4°F6.3°C 21.3°F-5.9°C 37.5°F3.1°C
Winds 3.1 mph N5.0 kmh N 7.6 mph N12.2 kmh N - 3.5 mph 5.6 kmh
Wind Gusts 9.2 mph14.8 kmh 13.6 mph21.9 kmh - -
Humidity 42% 74% 29% 49%
Pressure 29.92 in1013.2 mb 30.01 in1016.3 mb 29.92 in1013.2 mb -
Hour Temp Dew Point Humidity Winds Wind Gusts Pressure Precip Precip Rate Daily Precip Total
05:30 PM 63.1°F17.3°C 39.7°F4.3°C 42% 3.1 mph N5.0 kmh N 9.2 mph14.8 kmh 29.92 in1013.2 mb 0.00 in0.0 mm 0.00 in/hr0.0 mm/hr 0.00 in0.0 mm
05:25 PM 63.1°F17.3°C 39.7°F4.3°C 42% 3.1 mph N5.0 kmh N 9.2 mph14.8 kmh 29.92 in1013.2 mb 0.00 in0.0 mm 0.00 in/hr0.0 mm/hr 0.00 in0.0 mm
05:20 PM 63.1°F17.3°C 39.7°F4.3°C 42% 3.1 mph N5.0 kmh N 9.2 mph14.8 kmh 29.92 in1013.2 mb 0.00 in0.0 mm 0.00 in/hr0.0 mm/hr 0.00 in0.0 mm
05:15 PM 63.1°F17.3°C 39.7°F4.3°C 42% 3.1 mph N5.0 kmh N 9.2 mph14.8 kmh 29.92 in1013.2 mb 0.00 in0.0 mm 0.00 in/hr0.0 mm/hr 0.00 in0.0 mm
05:10 PM 63.1°F17.3°C 39.7°F4.3°C 42% 3.1 mph N5.0 kmh N 9.2 mph14.8 kmh 29.92 in1013.2 mb 0.00 in0.0 mm 0.00 in/hr0.0 mm/hr 0.00 in0.0 mm
05:05 PM 63.1°F17.3°C 39.7°F4.3°C 42% 3.1 mph N5.0 kmh N 9.2 mph14.8 kmh 29.92 in1013.2 mb 0.00 in0.0 mm 0.00 in/hr0.0 mm/hr 0.00 in0.0 mm
05:00 PM 63.1°F17.3°C 39.7°F4.3°C 42% 3.1 mph N5.0 kmh N 9.2 mph14.8 kmh 29.92 in1013.2 mb 0.00 in0.0 mm 0.00 in/hr0.0 mm/hr 0.00 in0.0 mm
04:55 PM 63.1°F17.3°C 39.7°F4.3°C 42% 3.1 mph N5.0 kmh N 9.2 mph14.8 kmh 29.92 in1013.2 mb 0.00 in0.0 mm 0.00 in/hr0.0 mm/hr 0.00 in0.0 mm
04:50 PM 63.1°F17.3°C 39.7°F4.3°C 42% 3.1 mph N5.0 kmh N 9.2 mph14.8 kmh 29.92 in1013.2 mb 0.00 in0.0 mm 0.00 in/hr0.0 mm/hr 0.00 in0.0 mm
04:45 PM 63.1°F17.3°C 39.7°F4.3°C 42% 3.1 mph N5.0 kmh N 9.2 mph14.8 kmh 29.92 in1013.2 mb 0.00 in0.0 mm 0.00 in/hr0.0 mm/hr 0.00 in0.0 mm
04:40 PM 63.1°F17.3°C 39.7°F4.3°C 42% 3.1 mph N5.0 kmh N 9.2 mph14.8 kmh 29.92 in1013.2 mb 0.00 in0.0 mm 0.00 in/hr0.0 mm/hr 0.00 in0.0 mm
04:35 PM 63.1°F17.3°C 39.7°F4.3°C 42% 3.1 mph N5.0 kmh N 9.2 mph14.8 kmh 29.92 in1013.2 mb 0.00 in0.0 mm 0.00 in/hr0.0 mm/hr 0.00 in0.0 mm
04:30 PM 63.1°F17.3°C 39.7°F4.3°C 42% 3.1 mph N5.0 kmh N 9.2 mph14.8 kmh 29.92 in1013.2 mb 0.00 in0.0 mm 0.00 in/hr0.0 mm/hr 0.00 in0.0 mm
04:25 PM 63.1°F17.3°C 39.7°F4.3°C 42% 3.1 mph N5.0 kmh N 9.2 mph14.8 kmh 29.92 in1013.2 mb 0.00 in0.0 mm 0.00 in/hr0.0 mm/hr 0.00 in0.0 mm
04:20 PM 63.1°F17.3°C 39.7°F4.3°C 42% 3.1 mph N5.0 kmh N 9.2 mph14.8 kmh 29.92 in1013.2 mb 0.00 in0.0 mm 0.00 in/hr0.0 mm/hr 0.00 in0.0 mm
04:15 PM 63.1°F17.3°C 39.7°F4.3°C 42% 3.1 mph N5.0 kmh N 9.2 mph14.8 kmh 29.92 in1013.2 mb 0.00 in0.0 mm 0.00 in/hr0.0 mm/hr 0.00 in0.0 mm
04:10 PM 63.1°F17.3°C 39.7°F4.3°C 42% 3.1 mph N5.0 kmh N 9.2 mph14.8 kmh 29.92 in1013.2 mb 0.00 in0.0 mm 0.00 in/hr0.0 mm/hr 0.00 in0.0 mm
04:05 PM 63.1°F17.3°C 39.7°F4.3°C 42% 3.1 mph N5.0 kmh N 9.2 mph14.8 kmh 29.92 in1013.2 mb 0.00 in0.0 mm 0.00 in/hr0.0 mm/hr 0.00 in0.0 mm
04:00 PM 63.1°F17.3°C 39.7°F4.3°C 42% 3.1 mph N5.0 kmh N 9.2 mph14.8 kmh 29.92 in1013.2 mb 0.00 in0.0 mm 0.00 in/hr0.0 mm/hr 0.00 in0.0 mm
03:55 PM 63.1°F17.3°C 39.7°F4.3°C 42% 3.1 mph N5.0 kmh N 9.2 mph14.8 kmh 29.92 in1013.2 mb 0.00 in0.0 mm 0.00 in/hr0.0 mm/hr 0.00 in0.0 mm
03:50 PM 63.1°F17.3°C 39.7°F4.3°C 42% 3.1 mph N5.0 kmh N 9.2 mph14.8 kmh 29.92 in1013.2 mb 0.00 in0.0 mm 0.00 in/hr0.0 mm/hr 0.00 in0.0 mm
03:45 PM 63.1°F17.3°C 39.7°F4.3°C 42% 3.1 mph N5.0 kmh N 9.2 mph14.8 kmh 29.92 in1013.2 mb 0.00 in0.0 mm 0.00 in/hr0.0 mm/hr 0.00 in0.0 mm
03:40 PM 63.1°F17.3°C 39.7°F4.3°C 42% 3.1 mph N5.0 kmh N 9.2 mph14.8 kmh 29.92 in1013.2 mb 0.00 in0.0 mm 0.00 in/hr0.0 mm/hr 0.00 in0.0 mm
03:35 PM 63.1°F17.3°C 39.7°F4.3°C 42% 6.0 mph N9.7 kmh N 9.2 mph14.8 kmh 29.92 in1013.2 mb 0.00 in0.0 mm 0.00 in/hr0.0 mm/hr 0.00 in0.0 mm
03:30 PM 63.3°F17.4°C 39.9°F4.4°C 42% 3.8 mph N6.1 kmh N 7.6 mph12.2 kmh 29.92 in1013.2 mb 0.00 in0.0 mm 0.00 in/hr0.0 mm/hr 0.00 in0.0 mm
03:25 PM 63.3°F17.4°C 39.9°F4.4°C 42% 3.8 mph N6.1 kmh N 10.7 mph17.2 kmh 29.92 in1013.2 mb 0.00 in0.0 mm 0.00 in/hr0.0 mm/hr 0.00 in0.0 mm
03:20 PM 63.3°F17.4°C 39.2°F4.0°C 41% 3.8 mph N6.1 kmh N 10.7 mph17.2 kmh 29.92 in1013.2 mb 0.00 in0.0 mm 0.00 in/hr0.0 mm/hr 0.00 in0.0 mm
03:15 PM 63.0°F17.2°C 38.3°F3.5°C 40% 2.2 mph N3.5 kmh N 9.8 mph15.8 kmh 29.92 in1013.2 mb 0.00 in0.0 mm 0.00 in/hr0.0 mm/hr 0.00 in0.0 mm
03:10 PM 63.0°F17.2°C 38.3°F3.5°C 40% 2.2 mph N3.5 kmh N 9.8 mph15.8 kmh 29.92 in1013.2 mb 0.00 in0.0 mm 0.00 in/hr0.0 mm/hr 0.00 in0.0 mm
02:45 PM 63.0°F17.2°C 38.3°F3.5°C 40% 2.2 mph N3.5 kmh N 9.8 mph15.8 kmh 29.92 in1013.2 mb 0.00 in0.0 mm 0.00 in/hr0.0 mm/hr 0.00 in0.0 mm
02:40 PM 63.0°F17.2°C 38.3°F3.5°C 40% 3.1 mph NW5.0 kmh NW 9.8 mph15.8 kmh 29.92 in1013.2 mb 0.00 in0.0 mm 0.00 in/hr0.0 mm/hr 0.00 in0.0 mm
02:35 PM 62.8°F17.1°C 38.7°F3.7°C 41% 7.6 mph NW12.2 kmh NW 9.8 mph15.8 kmh 29.92 in1013.2 mb 0.00 in0.0 mm 0.00 in/hr0.0 mm/hr 0.00 in0.0 mm
02:30 PM 62.8°F17.1°C 38.7°F3.7°C 41% 3.8 mph N6.1 kmh N 10.7 mph17.2 kmh 29.92 in1013.2 mb 0.00 in0.0 mm 0.00 in/hr0.0 mm/hr 0.00 in0.0 mm
02:25 PM 62.4°F16.9°C 39.0°F3.9°C 42% 4.5 mph N7.2 kmh N 13.6 mph21.9 kmh 29.92 in1013.2 mb 0.00 in0.0 mm 0.00 in/hr0.0 mm/hr 0.00 in0.0 mm
02:20 PM 62.2°F16.8°C 38.9°F3.8°C 42% 6.9 mph NNE11.1 kmh NNE 13.6 mph21.9 kmh 29.92 in1013.2 mb 0.00 in0.0 mm 0.00 in/hr0.0 mm/hr 0.00 in0.0 mm
02:15 PM 62.4°F16.9°C 38.4°F3.6°C 41% 3.8 mph N6.1 kmh N 10.7 mph17.2 kmh 29.92 in1013.2 mb 0.00 in0.0 mm 0.00 in/hr0.0 mm/hr 0.00 in0.0 mm
02:10 PM 62.8°F17.1°C 38.7°F3.7°C 41% 3.8 mph NNW6.1 kmh NNW 10.7 mph17.2 kmh 29.92 in1013.2 mb 0.00 in0.0 mm 0.00 in/hr0.0 mm/hr 0.00 in0.0 mm
02:05 PM 63.1°F17.3°C 39.1°F3.9°C 41% 3.1 mph N5.0 kmh N 8.3 mph13.4 kmh 29.92 in1013.2 mb 0.00 in0.0 mm 0.00 in/hr0.0 mm/hr 0.00 in0.0 mm
02:00 PM 63.1°F17.3°C 40.9°F4.9°C 44% 4.5 mph NNW7.2 kmh NNW 6.9 mph11.1 kmh 29.92 in1013.2 mb 0.00 in0.0 mm 0.00 in/hr0.0 mm/hr 0.00 in0.0 mm
01:55 PM 62.8°F17.1°C 40.0°F4.4°C 43% 5.4 mph NNW8.7 kmh NNW 11.4 mph18.3 kmh 29.92 in1013.2 mb 0.00 in0.0 mm 0.00 in/hr0.0 mm/hr 0.00 in0.0 mm
01:50 PM 62.4°F16.9°C 39.0°F3.9°C 42% 4.5 mph N7.2 kmh N 11.4 mph18.3 kmh 29.92 in1013.2 mb 0.00 in0.0 mm 0.00 in/hr0.0 mm/hr 0.00 in0.0 mm
01:45 PM 62.4°F16.9°C 39.0°F3.9°C 42% 4.5 mph N7.2 kmh N 8.3 mph13.4 kmh 29.92 in1013.2 mb 0.00 in0.0 mm 0.00 in/hr0.0 mm/hr 0.00 in0.0 mm
01:40 PM 62.6°F17.0°C 41.0°F5.0°C 45% 3.1 mph N5.0 kmh N 11.4 mph18.3 kmh 29.92 in1013.2 mb 0.00 in0.0 mm 0.00 in/hr0.0 mm/hr 0.00 in0.0 mm
01:35 PM 62.2°F16.8°C 40.1°F4.5°C 44% 6.0 mph NE9.7 kmh NE 11.4 mph18.3 kmh 29.92 in1013.2 mb 0.00 in0.0 mm 0.00 in/hr0.0 mm/hr 0.00 in0.0 mm
01:30 PM 62.1°F16.7°C 39.9°F4.4°C 44% 7.6 mph N12.2 kmh N 11.4 mph18.3 kmh 29.92 in1013.2 mb 0.00 in0.0 mm 0.00 in/hr0.0 mm/hr 0.00 in0.0 mm
01:25 PM 62.1°F16.7°C 41.6°F5.3°C 47% 3.8 mph NW6.1 kmh NW 10.7 mph17.2 kmh 29.92 in1013.2 mb 0.00 in0.0 mm 0.00 in/hr0.0 mm/hr 0.00 in0.0 mm
01:20 PM 62.1°F16.7°C 41.1°F5.1°C 46% 2.2 mph N3.5 kmh N 12.1 mph19.5 kmh 29.92 in1013.2 mb 0.00 in0.0 mm 0.00 in/hr0.0 mm/hr 0.00 in0.0 mm
01:15 PM 61.7°F16.5°C 41.3°F5.2°C 47% 2.2 mph N3.5 kmh N 12.1 mph19.5 kmh 29.92 in1013.2 mb 0.00 in0.0 mm 0.00 in/hr0.0 mm/hr 0.00 in0.0 mm
01:10 PM 61.7°F16.5°C 41.8°F5.4°C 48% 2.2 mph NW3.5 kmh NW 9.8 mph15.8 kmh 29.92 in1013.2 mb 0.00 in0.0 mm 0.00 in/hr0.0 mm/hr 0.00 in0.0 mm
01:05 PM 61.2°F16.2°C 40.8°F4.9°C 47% 1.6 mph NW2.6 kmh NW 11.4 mph18.3 kmh 29.92 in1013.2 mb 0.00 in0.0 mm 0.00 in/hr0.0 mm/hr 0.00 in0.0 mm
01:00 PM 61.2°F16.2°C 41.3°F5.2°C 48% 3.8 mph NNW6.1 kmh NNW 11.4 mph18.3 kmh 29.92 in1013.2 mb 0.00 in0.0 mm 0.00 in/hr0.0 mm/hr 0.00 in0.0 mm
12:55 PM 61.3°F16.3°C 42.0°F5.6°C 49% 3.8 mph N6.1 kmh N 9.8 mph15.8 kmh 29.92 in1013.2 mb 0.00 in0.0 mm 0.00 in/hr0.0 mm/hr 0.00 in0.0 mm
12:50 PM 60.8°F16.0°C 40.5°F4.7°C 47% 0.7 mph NE1.1 kmh NE 10.7 mph17.2 kmh 29.92 in1013.2 mb 0.00 in0.0 mm 0.00 in/hr0.0 mm/hr 0.00 in0.0 mm
12:45 PM 60.8°F16.0°C 41.5°F5.3°C 49% 6.0 mph NE9.7 kmh NE 10.7 mph17.2 kmh 29.92 in1013.2 mb 0.00 in0.0 mm 0.00 in/hr0.0 mm/hr 0.00 in0.0 mm
12:40 PM 61.0°F16.1°C 41.7°F5.4°C 49% 4.5 mph N7.2 kmh N 7.6 mph12.2 kmh 29.92 in1013.2 mb 0.00 in0.0 mm 0.00 in/hr0.0 mm/hr 0.00 in0.0 mm
12:35 PM 60.8°F16.0°C 41.0°F5.0°C 48% 4.5 mph NNE7.2 kmh NNE 9.2 mph14.8 kmh 29.92 in1013.2 mb 0.00 in0.0 mm 0.00 in/hr0.0 mm/hr 0.00 in0.0 mm
12:30 PM 60.6°F15.9°C 41.9°F5.5°C 50% 3.1 mph NE5.0 kmh NE 9.2 mph14.8 kmh 29.92 in1013.2 mb 0.00 in0.0 mm 0.00 in/hr0.0 mm/hr 0.00 in0.0 mm
12:25 PM 60.3°F15.7°C 42.1°F5.6°C 51% 3.8 mph N6.1 kmh N 9.2 mph14.8 kmh 29.92 in1013.2 mb 0.00 in0.0 mm 0.00 in/hr0.0 mm/hr 0.00 in0.0 mm
12:20 PM 59.7°F15.4°C 41.6°F5.3°C 51% 3.1 mph NNW5.0 kmh NNW 9.8 mph15.8 kmh 29.92 in1013.2 mb 0.00 in0.0 mm 0.00 in/hr0.0 mm/hr 0.00 in0.0 mm
12:15 PM 59.7°F15.4°C 42.1°F5.6°C 52% 6.0 mph NNW9.7 kmh NNW 9.8 mph15.8 kmh 29.92 in1013.2 mb 0.00 in0.0 mm 0.00 in/hr0.0 mm/hr 0.00 in0.0 mm
12:10 PM 59.4°F15.2°C 41.7°F5.4°C 52% 2.2 mph N3.5 kmh N 8.3 mph13.4 kmh 29.92 in1013.2 mb 0.00 in0.0 mm 0.00 in/hr0.0 mm/hr 0.00 in0.0 mm
12:05 PM 59.4°F15.2°C 41.7°F5.4°C 52% 3.1 mph NNE5.0 kmh NNE 8.3 mph13.4 kmh 29.92 in1013.2 mb 0.00 in0.0 mm 0.00 in/hr0.0 mm/hr 0.00 in0.0 mm
12:00 PM 59.2°F15.1°C 42.1°F5.6°C 53% 5.4 mph NNE8.7 kmh NNE 9.8 mph15.8 kmh 29.92 in1013.2 mb 0.00 in0.0 mm 0.00 in/hr0.0 mm/hr 0.00 in0.0 mm
11:55 AM 59.0°F15.0°C 41.9°F5.5°C 53% 3.8 mph N6.1 kmh N 9.8 mph15.8 kmh 29.92 in1013.2 mb 0.00 in0.0 mm 0.00 in/hr0.0 mm/hr 0.00 in0.0 mm
11:50 AM 58.6°F14.8°C 42.5°F5.8°C 55% 3.1 mph N5.0 kmh N 9.2 mph14.8 kmh 29.92 in1013.2 mb 0.00 in0.0 mm 0.00 in/hr0.0 mm/hr 0.00 in0.0 mm
11:45 AM 58.5°F14.7°C 42.4°F5.8°C 55% 5.4 mph N8.7 kmh N 13.0 mph20.9 kmh 29.92 in1013.2 mb 0.00 in0.0 mm 0.00 in/hr0.0 mm/hr 0.00 in0.0 mm
11:40 AM 58.5°F14.7°C 42.4°F5.8°C 55% 3.1 mph N5.0 kmh N 13.0 mph20.9 kmh 29.92 in1013.2 mb 0.00 in0.0 mm 0.00 in/hr0.0 mm/hr 0.00 in0.0 mm
11:35 AM 58.5°F14.7°C 42.4°F5.8°C 55% 6.0 mph N9.7 kmh N 13.0 mph20.9 kmh 29.92 in1013.2 mb 0.00 in0.0 mm 0.00 in/hr0.0 mm/hr 0.00 in0.0 mm
11:30 AM 58.1°F14.5°C 42.5°F5.8°C 56% 3.8 mph N6.1 kmh N 10.7 mph17.2 kmh 29.92 in1013.2 mb 0.00 in0.0 mm 0.00 in/hr0.0 mm/hr 0.00 in0.0 mm
11:25 AM 57.9°F14.4°C 42.3°F5.7°C 56% 3.1 mph N5.0 kmh N 10.7 mph17.2 kmh 29.92 in1013.2 mb 0.00 in0.0 mm 0.00 in/hr0.0 mm/hr 0.00 in0.0 mm
11:20 AM 58.1°F14.5°C 43.4°F6.3°C 58% 4.5 mph N7.2 kmh N 8.3 mph13.4 kmh 29.92 in1013.2 mb 0.00 in0.0 mm 0.00 in/hr0.0 mm/hr 0.00 in0.0 mm
11:15 AM 57.7°F14.3°C 43.1°F6.2°C 58% 4.5 mph N7.2 kmh N 8.3 mph13.4 kmh 29.92 in1013.2 mb 0.00 in0.0 mm 0.00 in/hr0.0 mm/hr 0.00 in0.0 mm
11:10 AM 57.6°F14.2°C 42.9°F6.1°C 58% 5.4 mph N8.7 kmh N 7.6 mph12.2 kmh 29.92 in1013.2 mb 0.00 in0.0 mm 0.00 in/hr0.0 mm/hr 0.00 in0.0 mm
11:05 AM 57.0°F13.9°C 43.3°F6.3°C 60% 2.2 mph N3.5 kmh N 9.8 mph15.8 kmh 29.92 in1013.2 mb 0.00 in0.0 mm 0.00 in/hr0.0 mm/hr 0.00 in0.0 mm
11:00 AM 56.5°F13.6°C 42.3°F5.7°C 59% 3.1 mph N5.0 kmh N 10.7 mph17.2 kmh 29.92 in1013.2 mb 0.00 in0.0 mm 0.00 in/hr0.0 mm/hr 0.00 in0.0 mm
10:55 AM 56.5°F13.6°C 42.8°F6.0°C 60% 3.8 mph NNW6.1 kmh NNW 10.7 mph17.2 kmh 29.92 in1013.2 mb 0.00 in0.0 mm 0.00 in/hr0.0 mm/hr 0.00 in0.0 mm
10:50 AM 56.3°F13.5°C 43.0°F6.1°C 61% 3.8 mph N6.1 kmh N 10.7 mph17.2 kmh 29.92 in1013.2 mb 0.00 in0.0 mm 0.00 in/hr0.0 mm/hr 0.00 in0.0 mm
10:45 AM 55.6°F13.1°C 41.9°F5.5°C 60% 3.8 mph NNE6.1 kmh NNE 10.7 mph17.2 kmh 29.92 in1013.2 mb 0.00 in0.0 mm 0.00 in/hr0.0 mm/hr 0.00 in0.0 mm
10:40 AM 55.8°F13.2°C 42.1°F5.6°C 60% 4.5 mph N7.2 kmh N 9.8 mph15.8 kmh 29.92 in1013.2 mb 0.00 in0.0 mm 0.00 in/hr0.0 mm/hr 0.00 in0.0 mm
10:35 AM 55.9°F13.3°C 43.1°F6.2°C 62% 6.9 mph N11.1 kmh N 9.8 mph15.8 kmh 29.92 in1013.2 mb 0.00 in0.0 mm 0.00 in/hr0.0 mm/hr 0.00 in0.0 mm
10:30 AM 55.0°F12.8°C 41.8°F5.4°C 61% 3.1 mph NNE5.0 kmh NNE 9.8 mph15.8 kmh 29.92 in1013.2 mb 0.00 in0.0 mm 0.00 in/hr0.0 mm/hr 0.00 in0.0 mm
10:25 AM 54.7°F12.6°C 41.5°F5.3°C 61% 6.9 mph N11.1 kmh N 9.8 mph15.8 kmh 29.92 in1013.2 mb 0.00 in0.0 mm 0.00 in/hr0.0 mm/hr 0.00 in0.0 mm
10:20 AM 54.5°F12.5°C 40.9°F4.9°C 60% 3.8 mph N6.1 kmh N 9.8 mph15.8 kmh 29.92 in1013.2 mb 0.00 in0.0 mm 0.00 in/hr0.0 mm/hr 0.00 in0.0 mm
10:15 AM 54.3°F12.4°C 41.2°F5.1°C 61% 5.4 mph NNW8.7 kmh NNW 9.8 mph15.8 kmh 29.92 in1013.2 mb 0.00 in0.0 mm 0.00 in/hr0.0 mm/hr 0.00 in0.0 mm
10:10 AM 54.3°F12.4°C 41.2°F5.1°C 61% 4.5 mph N7.2 kmh N 9.8 mph15.8 kmh 29.92 in1013.2 mb 0.00 in0.0 mm 0.00 in/hr0.0 mm/hr 0.00 in0.0 mm
10:05 AM 54.3°F12.4°C 41.2°F5.1°C 61% 3.8 mph N6.1 kmh N 9.8 mph15.8 kmh 29.92 in1013.2 mb 0.00 in0.0 mm 0.00 in/hr0.0 mm/hr 0.00 in0.0 mm
10:00 AM 54.0°F12.2°C 41.2°F5.1°C 62% 5.4 mph NNW8.7 kmh NNW 8.3 mph13.4 kmh 29.92 in1013.2 mb 0.00 in0.0 mm 0.00 in/hr0.0 mm/hr 0.00 in0.0 mm
09:55 AM 53.4°F11.9°C 40.7°F4.8°C 62% 2.2 mph NNW3.5 kmh NNW 8.3 mph13.4 kmh 29.92 in1013.2 mb 0.00 in0.0 mm 0.00 in/hr0.0 mm/hr 0.00 in0.0 mm
09:50 AM 53.1°F11.7°C 40.4°F4.7°C 62% 5.4 mph N8.7 kmh N 8.3 mph13.4 kmh 29.92 in1013.2 mb 0.00 in0.0 mm 0.00 in/hr0.0 mm/hr 0.00 in0.0 mm
09:45 AM 52.9°F11.6°C 40.6°F4.8°C 63% 3.1 mph N5.0 kmh N 6.9 mph11.1 kmh 29.92 in1013.2 mb 0.00 in0.0 mm 0.00 in/hr0.0 mm/hr 0.00 in0.0 mm
09:40 AM 52.5°F11.4°C 40.3°F4.6°C 63% 3.8 mph N6.1 kmh N 8.3 mph13.4 kmh 29.92 in1013.2 mb 0.00 in0.0 mm 0.00 in/hr0.0 mm/hr 0.00 in0.0 mm
09:35 AM 52.0°F11.1°C 39.8°F4.3°C 63% 3.1 mph N5.0 kmh N 9.8 mph15.8 kmh 29.92 in1013.2 mb 0.00 in0.0 mm 0.00 in/hr0.0 mm/hr 0.00 in0.0 mm
09:30 AM 51.6°F10.9°C 39.4°F4.1°C 63% 2.2 mph NNW3.5 kmh NNW 9.8 mph15.8 kmh 29.92 in1013.2 mb 0.00 in0.0 mm 0.00 in/hr0.0 mm/hr 0.00 in0.0 mm
09:25 AM 51.3°F10.7°C 39.1°F3.9°C 63% 4.5 mph NW7.2 kmh NW 9.8 mph15.8 kmh 29.92 in1013.2 mb 0.00 in0.0 mm 0.00 in/hr0.0 mm/hr 0.00 in0.0 mm
09:20 AM 51.1°F10.6°C 39.3°F4.1°C 64% 2.2 mph NNW3.5 kmh NNW 10.7 mph17.2 kmh 29.92 in1013.2 mb 0.00 in0.0 mm 0.00 in/hr0.0 mm/hr 0.00 in0.0 mm
09:15 AM 50.7°F10.4°C 38.6°F3.7°C 63% 5.4 mph N8.7 kmh N 10.7 mph17.2 kmh 29.92 in1013.2 mb 0.00 in0.0 mm 0.00 in/hr0.0 mm/hr 0.00 in0.0 mm
09:10 AM 30.2°F-1.0°C 21.3°F-5.9°C 69% 6.0 mph NW9.7 kmh NW 8.3 mph13.4 kmh 30.01 in1016.3 mb 0.00 in0.0 mm 0.00 in/hr0.0 mm/hr 0.00 in0.0 mm
09:05 AM 30.2°F-1.0°C 21.3°F-5.9°C 69% 6.0 mph NW9.7 kmh NW 8.3 mph13.4 kmh 30.01 in1016.3 mb 0.00 in0.0 mm 0.00 in/hr0.0 mm/hr 0.00 in0.0 mm
09:01 AM 30.2°F-1.0°C 21.3°F-5.9°C 69% 6.0 mph NW9.7 kmh NW 8.3 mph13.4 kmh 30.01 in1016.3 mb 0.00 in0.0 mm 0.00 in/hr0.0 mm/hr 0.00 in0.0 mm
08:55 AM 30.2°F-1.0°C 21.3°F-5.9°C 69% 6.0 mph NW9.7 kmh NW 8.3 mph13.4 kmh 30.01 in1016.3 mb 0.00 in0.0 mm 0.00 in/hr0.0 mm/hr 0.00 in0.0 mm
08:50 AM 30.2°F-1.0°C 21.3°F-5.9°C 69% 6.0 mph NW9.7 kmh NW 8.3 mph13.4 kmh 30.01 in1016.3 mb 0.00 in0.0 mm 0.00 in/hr0.0 mm/hr 0.00 in0.0 mm
08:46 AM 30.2°F-1.0°C 21.3°F-5.9°C 69% 6.0 mph NW9.7 kmh NW 8.3 mph13.4 kmh 30.01 in1016.3 mb 0.00 in0.0 mm 0.00 in/hr0.0 mm/hr 0.00 in0.0 mm
08:40 AM 30.2°F-1.0°C 21.3°F-5.9°C 69% 6.0 mph NW9.7 kmh NW 8.3 mph13.4 kmh 30.01 in1016.3 mb 0.00 in0.0 mm 0.00 in/hr0.0 mm/hr 0.00 in0.0 mm
08:35 AM 30.2°F-1.0°C 21.3°F-5.9°C 69% 6.0 mph NW9.7 kmh NW 8.3 mph13.4 kmh 30.01 in1016.3 mb 0.00 in0.0 mm 0.00 in/hr0.0 mm/hr 0.00 in0.0 mm
08:31 AM 30.2°F-1.0°C 21.3°F-5.9°C 69% 6.0 mph NW9.7 kmh NW 8.3 mph13.4 kmh 30.01 in1016.3 mb 0.00 in0.0 mm 0.00 in/hr0.0 mm/hr 0.00 in0.0 mm
08:25 AM 47.1°F8.4°C 37.5°F3.1°C 69% 0.7 mph NW1.1 kmh NW 9.8 mph15.8 kmh 30.01 in1016.3 mb 0.00 in0.0 mm 0.00 in/hr0.0 mm/hr 0.00 in0.0 mm
08:20 AM 47.1°F8.4°C 37.5°F3.1°C 69% 5.4 mph NNW8.7 kmh NNW 10.7 mph17.2 kmh 30.01 in1016.3 mb 0.00 in0.0 mm 0.00 in/hr0.0 mm/hr 0.00 in0.0 mm
08:15 AM 46.2°F7.9°C 37.0°F2.8°C 70% 3.1 mph NW5.0 kmh NW 10.7 mph17.2 kmh 30.01 in1016.3 mb 0.00 in0.0 mm 0.00 in/hr0.0 mm/hr 0.00 in0.0 mm
08:10 AM 46.2°F7.9°C 37.0°F2.8°C 70% 1.6 mph NW2.6 kmh NW 7.6 mph12.2 kmh 30.01 in1016.3 mb 0.00 in0.0 mm 0.00 in/hr0.0 mm/hr 0.00 in0.0 mm
08:05 AM 46.2°F7.9°C 37.0°F2.8°C 70% 4.5 mph WNW7.2 kmh WNW 7.6 mph12.2 kmh 30.01 in1016.3 mb 0.00 in0.0 mm 0.00 in/hr0.0 mm/hr 0.00 in0.0 mm
08:00 AM 45.7°F7.6°C 36.5°F2.5°C 70% 2.2 mph NNW3.5 kmh NNW 8.3 mph13.4 kmh 29.92 in1013.2 mb 0.00 in0.0 mm 0.00 in/hr0.0 mm/hr 0.00 in0.0 mm
07:55 AM 45.7°F7.6°C 36.5°F2.5°C 70% 2.2 mph NNW3.5 kmh NNW 8.3 mph13.4 kmh 29.92 in1013.2 mb 0.00 in0.0 mm 0.00 in/hr0.0 mm/hr 0.00 in0.0 mm
07:50 AM 45.5°F7.5°C 36.3°F2.4°C 70% 3.1 mph N5.0 kmh N 7.6 mph12.2 kmh 29.92 in1013.2 mb 0.00 in0.0 mm 0.00 in/hr0.0 mm/hr 0.00 in0.0 mm
07:45 AM 45.1°F7.3°C 36.3°F2.4°C 71% 3.1 mph N5.0 kmh N 7.6 mph12.2 kmh 29.92 in1013.2 mb 0.00 in0.0 mm 0.00 in/hr0.0 mm/hr 0.00 in0.0 mm
07:40 AM 44.8°F7.1°C 36.0°F2.2°C 71% 2.2 mph NW3.5 kmh NW 6.9 mph11.1 kmh 29.92 in1013.2 mb 0.00 in0.0 mm 0.00 in/hr0.0 mm/hr 0.00 in0.0 mm
07:35 AM 70.0°F21.1°C 36.3°F2.4°C 29% 3.8 mph W6.1 kmh W 7.6 mph12.2 kmh 29.92 in1013.2 mb 0.00 in0.0 mm 0.00 in/hr0.0 mm/hr 0.00 in0.0 mm
07:30 AM 44.1°F6.7°C 36.0°F2.2°C 73% Calm Calm 6.9 mph11.1 kmh 29.92 in1013.2 mb 0.00 in0.0 mm 0.00 in/hr0.0 mm/hr 0.00 in0.0 mm
07:25 AM 43.5°F6.4°C 35.8°F2.1°C 74% 2.2 mph N3.5 kmh N 6.9 mph11.1 kmh 29.92 in1013.2 mb 0.00 in0.0 mm 0.00 in/hr0.0 mm/hr 0.00 in0.0 mm
07:20 AM 70.0°F21.1°C 36.3°F2.4°C 29% 3.8 mph W6.1 kmh W 7.6 mph12.2 kmh 29.92 in1013.2 mb 0.00 in0.0 mm 0.00 in/hr0.0 mm/hr 0.00 in0.0 mm
07:15 AM 43.0°F6.1°C 34.9°F1.6°C 73% 1.6 mph N2.6 kmh N 7.6 mph12.2 kmh 29.92 in1013.2 mb 0.00 in0.0 mm 0.00 in/hr0.0 mm/hr 0.00 in0.0 mm
07:10 AM 43.0°F6.1°C 34.9°F1.6°C 73% 2.2 mph N3.5 kmh N 7.6 mph12.2 kmh 29.92 in1013.2 mb 0.00 in0.0 mm 0.00 in/hr0.0 mm/hr 0.00 in0.0 mm
07:05 AM 70.0°F21.1°C 36.3°F2.4°C 29% 3.8 mph W6.1 kmh W 7.6 mph12.2 kmh 29.92 in1013.2 mb 0.00 in0.0 mm 0.00 in/hr0.0 mm/hr 0.00 in0.0 mm
07:00 AM 43.2°F6.2°C 35.4°F1.9°C 74% 4.5 mph N7.2 kmh N 7.6 mph12.2 kmh 29.92 in1013.2 mb 0.00 in0.0 mm 0.00 in/hr0.0 mm/hr 0.00 in0.0 mm
06:55 AM 43.2°F6.2°C 35.4°F1.9°C 74% 1.6 mph NW2.6 kmh NW 8.3 mph13.4 kmh 29.92 in1013.2 mb 0.00 in0.0 mm 0.00 in/hr0.0 mm/hr 0.00 in0.0 mm
06:50 AM 43.2°F6.2°C 35.4°F1.9°C 74% 3.1 mph NW5.0 kmh NW 9.2 mph14.8 kmh 29.92 in1013.2 mb 0.00 in0.0 mm 0.00 in/hr0.0 mm/hr 0.00 in0.0 mm
06:45 AM 43.3°F6.3°C 35.6°F2.0°C 74% 1.6 mph NW2.6 kmh NW 9.2 mph14.8 kmh 29.92 in1013.2 mb 0.00 in0.0 mm 0.00 in/hr0.0 mm/hr 0.00 in0.0 mm
06:40 AM 70.0°F21.1°C 36.3°F2.4°C 29% 3.8 mph W6.1 kmh W 7.6 mph12.2 kmh 29.92 in1013.2 mb 0.00 in0.0 mm 0.00 in/hr0.0 mm/hr 0.00 in0.0 mm
06:35 AM 70.0°F21.1°C 36.3°F2.4°C 29% 3.8 mph W6.1 kmh W 7.6 mph12.2 kmh 29.92 in1013.2 mb 0.00 in0.0 mm 0.00 in/hr0.0 mm/hr 0.00 in0.0 mm
06:30 AM 43.3°F6.3°C 35.6°F2.0°C 74% 0.7 mph NW1.1 kmh NW 6.0 mph9.7 kmh 29.92 in1013.2 mb 0.00 in0.0 mm 0.00 in/hr0.0 mm/hr 0.00 in0.0 mm
06:25 AM 70.0°F21.1°C 36.3°F2.4°C 29% 3.8 mph W6.1 kmh W 7.6 mph12.2 kmh 29.92 in1013.2 mb 0.00 in0.0 mm 0.00 in/hr0.0 mm/hr 0.00 in0.0 mm
06:20 AM 70.0°F21.1°C 36.3°F2.4°C 29% 3.8 mph W6.1 kmh W 7.6 mph12.2 kmh 29.92 in1013.2 mb 0.00 in0.0 mm 0.00 in/hr0.0 mm/hr 0.00 in0.0 mm
06:15 AM 43.9°F6.6°C 35.4°F1.9°C 72% 2.2 mph NW3.5 kmh NW 7.6 mph12.2 kmh 29.92 in1013.2 mb 0.00 in0.0 mm 0.00 in/hr0.0 mm/hr 0.00 in0.0 mm
06:10 AM 70.0°F21.1°C 36.3°F2.4°C 29% 3.8 mph W6.1 kmh W 7.6 mph12.2 kmh 29.92 in1013.2 mb 0.00 in0.0 mm 0.00 in/hr0.0 mm/hr 0.00 in0.0 mm
06:05 AM 70.0°F21.1°C 36.3°F2.4°C 29% 3.8 mph W6.1 kmh W 7.6 mph12.2 kmh 29.92 in1013.2 mb 0.00 in0.0 mm 0.00 in/hr0.0 mm/hr 0.00 in0.0 mm
06:00 AM 44.4°F6.9°C 35.6°F2.0°C 71% 2.2 mph NW3.5 kmh NW 9.8 mph15.8 kmh 29.92 in1013.2 mb 0.00 in0.0 mm 0.00 in/hr0.0 mm/hr 0.00 in0.0 mm
05:55 AM 70.0°F21.1°C 36.3°F2.4°C 29% 3.8 mph W6.1 kmh W 7.6 mph12.2 kmh 29.92 in1013.2 mb 0.00 in0.0 mm 0.00 in/hr0.0 mm/hr 0.00 in0.0 mm
05:50 AM 44.6°F7.0°C 35.1°F1.7°C 69% 4.5 mph NW7.2 kmh NW 10.7 mph17.2 kmh 29.92 in1013.2 mb 0.00 in0.0 mm 0.00 in/hr0.0 mm/hr 0.00 in0.0 mm
05:45 AM 44.6°F7.0°C 35.1°F1.7°C 69% 3.8 mph NW6.1 kmh NW 7.6 mph12.2 kmh 29.92 in1013.2 mb 0.00 in0.0 mm 0.00 in/hr0.0 mm/hr 0.00 in0.0 mm
05:40 AM 44.8°F7.1°C 35.2°F1.8°C 69% 3.1 mph NNW5.0 kmh NNW 9.8 mph15.8 kmh 29.92 in1013.2 mb 0.00 in0.0 mm 0.00 in/hr0.0 mm/hr 0.00 in0.0 mm
05:35 AM 70.0°F21.1°C 36.3°F2.4°C 29% 3.8 mph W6.1 kmh W 7.6 mph12.2 kmh 29.92 in1013.2 mb 0.00 in0.0 mm 0.00 in/hr0.0 mm/hr 0.00 in0.0 mm
05:30 AM 45.0°F7.2°C 35.4°F1.9°C 69% 3.1 mph NW5.0 kmh NW 9.2 mph14.8 kmh 29.92 in1013.2 mb 0.00 in0.0 mm 0.00 in/hr0.0 mm/hr 0.00 in0.0 mm
05:25 AM 70.0°F21.1°C 36.3°F2.4°C 29% 3.8 mph W6.1 kmh W 7.6 mph12.2 kmh 29.92 in1013.2 mb 0.00 in0.0 mm 0.00 in/hr0.0 mm/hr 0.00 in0.0 mm
05:20 AM 45.1°F7.3°C 35.9°F2.2°C 70% 2.2 mph NW3.5 kmh NW 12.1 mph19.5 kmh 29.92 in1013.2 mb 0.00 in0.0 mm 0.00 in/hr0.0 mm/hr 0.00 in0.0 mm
05:15 AM 45.1°F7.3°C 35.9°F2.2°C 70% 3.1 mph NW5.0 kmh NW 6.9 mph11.1 kmh 29.92 in1013.2 mb 0.00 in0.0 mm 0.00 in/hr0.0 mm/hr 0.00 in0.0 mm
05:10 AM 70.0°F21.1°C 36.3°F2.4°C 29% 3.8 mph W6.1 kmh W 7.6 mph12.2 kmh 29.92 in1013.2 mb 0.00 in0.0 mm 0.00 in/hr0.0 mm/hr 0.00 in0.0 mm
05:05 AM 45.5°F7.5°C 35.9°F2.2°C 69% 2.2 mph NW3.5 kmh NW 6.0 mph9.7 kmh 29.92 in1013.2 mb 0.00 in0.0 mm 0.00 in/hr0.0 mm/hr 0.00 in0.0 mm
05:00 AM 45.5°F7.5°C 35.9°F2.2°C 69% 2.2 mph NW3.5 kmh NW 9.8 mph15.8 kmh 29.92 in1013.2 mb 0.00 in0.0 mm 0.00 in/hr0.0 mm/hr 0.00 in0.0 mm
04:55 AM 45.5°F7.5°C 35.9°F2.2°C 69% 2.2 mph NNW3.5 kmh NNW 9.8 mph15.8 kmh 29.92 in1013.2 mb 0.00 in0.0 mm 0.00 in/hr0.0 mm/hr 0.00 in0.0 mm
04:50 AM 45.7°F7.6°C 36.1°F2.3°C 69% 2.2 mph NW3.5 kmh NW 9.8 mph15.8 kmh 29.92 in1013.2 mb 0.00 in0.0 mm 0.00 in/hr0.0 mm/hr 0.00 in0.0 mm
04:45 AM 45.7°F7.6°C 35.7°F2.1°C 68% 1.6 mph WNW2.6 kmh WNW 7.6 mph12.2 kmh 29.92 in1013.2 mb 0.00 in0.0 mm 0.00 in/hr0.0 mm/hr 0.00 in0.0 mm
04:40 AM 45.7°F7.6°C 35.7°F2.1°C 68% 3.8 mph NW6.1 kmh NW 9.2 mph14.8 kmh 29.92 in1013.2 mb 0.00 in0.0 mm 0.00 in/hr0.0 mm/hr 0.00 in0.0 mm
04:35 AM 70.0°F21.1°C 36.3°F2.4°C 29% 3.8 mph W6.1 kmh W 7.6 mph12.2 kmh 29.92 in1013.2 mb 0.00 in0.0 mm 0.00 in/hr0.0 mm/hr 0.00 in0.0 mm
04:30 AM 46.2°F7.9°C 36.3°F2.4°C 68% 1.6 mph NW2.6 kmh NW 9.2 mph14.8 kmh 29.92 in1013.2 mb 0.00 in0.0 mm 0.00 in/hr0.0 mm/hr 0.00 in0.0 mm
04:25 AM 70.0°F21.1°C 36.3°F2.4°C 29% 3.8 mph W6.1 kmh W 7.6 mph12.2 kmh 29.92 in1013.2 mb 0.00 in0.0 mm 0.00 in/hr0.0 mm/hr 0.00 in0.0 mm
04:20 AM 70.0°F21.1°C 36.3°F2.4°C 29% 3.8 mph W6.1 kmh W 7.6 mph12.2 kmh 29.92 in1013.2 mb 0.00 in0.0 mm 0.00 in/hr0.0 mm/hr 0.00 in0.0 mm
04:15 AM 46.6°F8.1°C 35.8°F2.1°C 66% 1.6 mph N2.6 kmh N 8.3 mph13.4 kmh 29.92 in1013.2 mb 0.00 in0.0 mm 0.00 in/hr0.0 mm/hr 0.00 in0.0 mm
04:10 AM 70.0°F21.1°C 36.3°F2.4°C 29% 3.8 mph W6.1 kmh W 7.6 mph12.2 kmh 29.92 in1013.2 mb 0.00 in0.0 mm 0.00 in/hr0.0 mm/hr 0.00 in0.0 mm
04:05 AM 46.8°F8.2°C 35.6°F2.0°C 65% 1.6 mph NNW2.6 kmh NNW 9.2 mph14.8 kmh 29.92 in1013.2 mb 0.00 in0.0 mm 0.00 in/hr0.0 mm/hr 0.00 in0.0 mm
04:00 AM 46.8°F8.2°C 35.6°F2.0°C 65% 6.0 mph N9.7 kmh N 9.2 mph14.8 kmh 29.92 in1013.2 mb 0.00 in0.0 mm 0.00 in/hr0.0 mm/hr 0.00 in0.0 mm
03:55 AM 46.8°F8.2°C 35.6°F2.0°C 65% 3.1 mph N5.0 kmh N 6.0 mph9.7 kmh 29.92 in1013.2 mb 0.00 in0.0 mm 0.00 in/hr0.0 mm/hr 0.00 in0.0 mm
03:50 AM 46.9°F8.3°C 35.8°F2.1°C 65% Calm Calm 9.2 mph14.8 kmh 29.92 in1013.2 mb 0.00 in0.0 mm 0.00 in/hr0.0 mm/hr 0.00 in0.0 mm
03:45 AM 70.0°F21.1°C 36.3°F2.4°C 29% 3.8 mph W6.1 kmh W 7.6 mph12.2 kmh 29.92 in1013.2 mb 0.00 in0.0 mm 0.00 in/hr0.0 mm/hr 0.00 in0.0 mm
03:40 AM 70.0°F21.1°C 36.3°F2.4°C 29% 3.8 mph W6.1 kmh W 7.6 mph12.2 kmh 29.92 in1013.2 mb 0.00 in0.0 mm 0.00 in/hr0.0 mm/hr 0.00 in0.0 mm
03:35 AM 47.3°F8.5°C 36.1°F2.3°C 65% 4.5 mph NNW7.2 kmh NNW 6.9 mph11.1 kmh 29.92 in1013.2 mb 0.00 in0.0 mm 0.00 in/hr0.0 mm/hr 0.00 in0.0 mm
03:30 AM 70.0°F21.1°C 36.3°F2.4°C 29% 3.8 mph W6.1 kmh W 7.6 mph12.2 kmh 29.92 in1013.2 mb 0.00 in0.0 mm 0.00 in/hr0.0 mm/hr 0.00 in0.0 mm
03:25 AM 70.0°F21.1°C 36.3°F2.4°C 29% 3.8 mph W6.1 kmh W 7.6 mph12.2 kmh 29.92 in1013.2 mb 0.00 in0.0 mm 0.00 in/hr0.0 mm/hr 0.00 in0.0 mm
03:20 AM 70.0°F21.1°C 36.3°F2.4°C 29% 3.8 mph W6.1 kmh W 7.6 mph12.2 kmh 29.92 in1013.2 mb 0.00 in0.0 mm 0.00 in/hr0.0 mm/hr 0.00 in0.0 mm
03:15 AM 70.0°F21.1°C 36.3°F2.4°C 29% 3.8 mph W6.1 kmh W 7.6 mph12.2 kmh 29.92 in1013.2 mb 0.00 in0.0 mm 0.00 in/hr0.0 mm/hr 0.00 in0.0 mm
03:10 AM 70.0°F21.1°C 36.3°F2.4°C 29% 3.8 mph W6.1 kmh W 7.6 mph12.2 kmh 29.92 in1013.2 mb 0.00 in0.0 mm 0.00 in/hr0.0 mm/hr 0.00 in0.0 mm
03:05 AM 70.0°F21.1°C 36.3°F2.4°C 29% 3.8 mph W6.1 kmh W 7.6 mph12.2 kmh 29.92 in1013.2 mb 0.00 in0.0 mm 0.00 in/hr0.0 mm/hr 0.00 in0.0 mm
03:00 AM 70.0°F21.1°C 36.3°F2.4°C 29% 3.8 mph W6.1 kmh W 7.6 mph12.2 kmh 29.92 in1013.2 mb 0.00 in0.0 mm 0.00 in/hr0.0 mm/hr 0.00 in0.0 mm
02:55 AM 70.0°F21.1°C 36.3°F2.4°C 29% 3.8 mph W6.1 kmh W 7.6 mph12.2 kmh 29.92 in1013.2 mb 0.00 in0.0 mm 0.00 in/hr0.0 mm/hr 0.00 in0.0 mm
02:50 AM 70.0°F21.1°C 36.3°F2.4°C 29% 3.8 mph W6.1 kmh W 7.6 mph12.2 kmh 29.92 in1013.2 mb 0.00 in0.0 mm 0.00 in/hr0.0 mm/hr 0.00 in0.0 mm
02:45 AM 70.0°F21.1°C 36.3°F2.4°C 29% 3.8 mph W6.1 kmh W 7.6 mph12.2 kmh 29.92 in1013.2 mb 0.00 in0.0 mm 0.00 in/hr0.0 mm/hr 0.00 in0.0 mm
02:40 AM 70.0°F21.1°C 36.3°F2.4°C 29% 3.8 mph W6.1 kmh W 7.6 mph12.2 kmh 29.92 in1013.2 mb 0.00 in0.0 mm 0.00 in/hr0.0 mm/hr 0.00 in0.0 mm
02:35 AM 70.0°F21.1°C 36.3°F2.4°C 29% 3.8 mph W6.1 kmh W 7.6 mph12.2 kmh 29.92 in1013.2 mb 0.00 in0.0 mm 0.00 in/hr0.0 mm/hr 0.00 in0.0 mm
02:30 AM 70.0°F21.1°C 36.3°F2.4°C 29% 3.8 mph W6.1 kmh W 7.6 mph12.2 kmh 29.92 in1013.2 mb 0.00 in0.0 mm 0.00 in/hr0.0 mm/hr 0.00 in0.0 mm
02:25 AM 70.0°F21.1°C 36.3°F2.4°C 29% 3.8 mph W6.1 kmh W 7.6 mph12.2 kmh 29.92 in1013.2 mb 0.00 in0.0 mm 0.00 in/hr0.0 mm/hr 0.00 in0.0 mm
02:20 AM 47.8°F8.8°C 37.4°F3.0°C 67% 1.6 mph N2.6 kmh N 6.0 mph9.7 kmh 29.92 in1013.2 mb 0.00 in0.0 mm 0.00 in/hr0.0 mm/hr 0.00 in0.0 mm
02:15 AM 70.0°F21.1°C 36.3°F2.4°C 29% 3.8 mph W6.1 kmh W 7.6 mph12.2 kmh 29.92 in1013.2 mb 0.00 in0.0 mm 0.00 in/hr0.0 mm/hr 0.00 in0.0 mm
02:10 AM 48.2°F9.0°C 37.0°F2.8°C 65% Calm Calm 4.5 mph7.2 kmh 29.92 in1013.2 mb 0.00 in0.0 mm 0.00 in/hr0.0 mm/hr 0.00 in0.0 mm
02:05 AM 48.2°F9.0°C 37.0°F2.8°C 65% 0.7 mph N1.1 kmh N 4.5 mph7.2 kmh 29.92 in1013.2 mb 0.00 in0.0 mm 0.00 in/hr0.0 mm/hr 0.00 in0.0 mm
02:00 AM 70.0°F21.1°C 36.3°F2.4°C 29% 3.8 mph W6.1 kmh W 7.6 mph12.2 kmh 29.92 in1013.2 mb 0.00 in0.0 mm 0.00 in/hr0.0 mm/hr 0.00 in0.0 mm
01:55 AM 70.0°F21.1°C 36.3°F2.4°C 29% 3.8 mph W6.1 kmh W 7.6 mph12.2 kmh 29.92 in1013.2 mb 0.00 in0.0 mm 0.00 in/hr0.0 mm/hr 0.00 in0.0 mm
01:50 AM 70.0°F21.1°C 36.3°F2.4°C 29% 3.8 mph W6.1 kmh W 7.6 mph12.2 kmh 29.92 in1013.2 mb 0.00 in0.0 mm 0.00 in/hr0.0 mm/hr 0.00 in0.0 mm
01:45 AM 70.0°F21.1°C 36.3°F2.4°C 29% 3.8 mph W6.1 kmh W 7.6 mph12.2 kmh 29.92 in1013.2 mb 0.00 in0.0 mm 0.00 in/hr0.0 mm/hr 0.00 in0.0 mm
01:40 AM 70.0°F21.1°C 36.3°F2.4°C 29% 3.8 mph W6.1 kmh W 7.6 mph12.2 kmh 29.92 in1013.2 mb 0.00 in0.0 mm 0.00 in/hr0.0 mm/hr 0.00 in0.0 mm
01:35 AM 70.0°F21.1°C 36.3°F2.4°C 29% 3.8 mph W6.1 kmh W 7.6 mph12.2 kmh 29.92 in1013.2 mb 0.00 in0.0 mm 0.00 in/hr0.0 mm/hr 0.00 in0.0 mm
01:30 AM 49.1°F9.5°C 37.9°F3.3°C 65% 1.6 mph N2.6 kmh N 6.0 mph9.7 kmh 29.92 in1013.2 mb 0.00 in0.0 mm 0.00 in/hr0.0 mm/hr 0.00 in0.0 mm
01:25 AM 70.0°F21.1°C 36.3°F2.4°C 29% 3.8 mph W6.1 kmh W 7.6 mph12.2 kmh 29.92 in1013.2 mb 0.00 in0.0 mm 0.00 in/hr0.0 mm/hr 0.00 in0.0 mm
01:20 AM 70.0°F21.1°C 36.3°F2.4°C 29% 3.8 mph W6.1 kmh W 7.6 mph12.2 kmh 29.92 in1013.2 mb 0.00 in0.0 mm 0.00 in/hr0.0 mm/hr 0.00 in0.0 mm
01:15 AM 49.3°F9.6°C 38.0°F3.3°C 65% 4.5 mph N7.2 kmh N 6.9 mph11.1 kmh 29.92 in1013.2 mb 0.00 in0.0 mm 0.00 in/hr0.0 mm/hr 0.00 in0.0 mm
01:10 AM 49.3°F9.6°C 38.0°F3.3°C 65% 2.2 mph N3.5 kmh N 6.9 mph11.1 kmh 29.92 in1013.2 mb 0.00 in0.0 mm 0.00 in/hr0.0 mm/hr 0.00 in0.0 mm
01:05 AM 49.3°F9.6°C 38.0°F3.3°C 65% 3.1 mph NNW5.0 kmh NNW 4.5 mph7.2 kmh 29.92 in1013.2 mb 0.00 in0.0 mm 0.00 in/hr0.0 mm/hr 0.00 in0.0 mm
01:00 AM 49.5°F9.7°C 37.8°F3.2°C 64% 0.7 mph NW1.1 kmh NW 4.5 mph7.2 kmh 29.92 in1013.2 mb 0.00 in0.0 mm 0.00 in/hr0.0 mm/hr 0.00 in0.0 mm
12:55 AM 70.0°F21.1°C 36.3°F2.4°C 29% 3.8 mph W6.1 kmh W 7.6 mph12.2 kmh 29.92 in1013.2 mb 0.00 in0.0 mm 0.00 in/hr0.0 mm/hr 0.00 in0.0 mm
12:50 AM 70.0°F21.1°C 36.3°F2.4°C 29% 3.8 mph W6.1 kmh W 7.6 mph12.2 kmh 29.92 in1013.2 mb 0.00 in0.0 mm 0.00 in/hr0.0 mm/hr 0.00 in0.0 mm
12:45 AM 50.0°F10.0°C 37.9°F3.3°C 63% 1.6 mph NW2.6 kmh NW 5.4 mph8.7 kmh 29.92 in1013.2 mb 0.00 in0.0 mm 0.00 in/hr0.0 mm/hr 0.00 in0.0 mm
12:40 AM 70.0°F21.1°C 36.3°F2.4°C 29% 3.8 mph W6.1 kmh W 7.6 mph12.2 kmh 29.92 in1013.2 mb 0.00 in0.0 mm 0.00 in/hr0.0 mm/hr 0.00 in0.0 mm
12:35 AM 70.0°F21.1°C 36.3°F2.4°C 29% 3.8 mph W6.1 kmh W 7.6 mph12.2 kmh 29.92 in1013.2 mb 0.00 in0.0 mm 0.00 in/hr0.0 mm/hr 0.00 in0.0 mm
12:30 AM 70.0°F21.1°C 36.3°F2.4°C 29% 3.8 mph W6.1 kmh W 7.6 mph12.2 kmh 29.92 in1013.2 mb 0.00 in0.0 mm 0.00 in/hr0.0 mm/hr 0.00 in0.0 mm
12:25 AM 70.0°F21.1°C 36.3°F2.4°C 29% 3.8 mph W6.1 kmh W 7.6 mph12.2 kmh 29.92 in1013.2 mb 0.00 in0.0 mm 0.00 in/hr0.0 mm/hr 0.00 in0.0 mm
12:20 AM 50.7°F10.4°C 37.8°F3.2°C 61% 0.7 mph NNW1.1 kmh NNW 6.0 mph9.7 kmh 29.92 in1013.2 mb 0.00 in0.0 mm 0.00 in/hr0.0 mm/hr 0.00 in0.0 mm
12:15 AM 70.0°F21.1°C 36.3°F2.4°C 29% 3.8 mph W6.1 kmh W 7.6 mph12.2 kmh 29.92 in1013.2 mb 0.00 in0.0 mm 0.00 in/hr0.0 mm/hr 0.00 in0.0 mm
12:10 AM 50.9°F10.5°C 37.9°F3.3°C 61% 3.1 mph NW5.0 kmh NW 8.3 mph13.4 kmh 29.92 in1013.2 mb 0.00 in0.0 mm 0.00 in/hr0.0 mm/hr 0.00 in0.0 mm
12:05 AM 50.9°F10.5°C 37.9°F3.3°C 61% 2.2 mph NW3.5 kmh NW 6.0 mph9.7 kmh 29.92 in1013.2 mb 0.00 in0.0 mm 0.00 in/hr0.0 mm/hr 0.00 in0.0 mm
12:00 AM 70.0°F21.1°C 36.3°F2.4°C 29% 3.8 mph W6.1 kmh W 7.6 mph12.2 kmh 29.92 in1013.2 mb 0.00 in0.0 mm 0.00 in/hr0.0 mm/hr 0.00 in0.0 mm